Time;durP1;ratioP1;P1;durP2;ratioP2;P2;SDS_P1;SDS_P2;PMS_P1;PMS_P2;Temp;Humidity;BMP_temperature;BMP_pressure;BME280_temperature;BME280_humidity;BME280_pressure;Samples;Min_cycle;Max_cycle;Signal;HPM_P1;HPM_P2
2021/01/04 00:00:47;;;;;;;1.38;0.57;;;19.90;75.30;;;;;;5070281;28;20086;-67
2021/01/04 00:03:26;;;;;;;2.22;0.40;;;19.90;75.40;;;;;;5069939;28;20068;-60
2021/01/04 00:06:24;;;;;;;0.45;0.30;;;19.90;75.30;;;;;;5065246;28;20130;-60
2021/01/04 00:09:12;;;;;;;0.60;0.30;;;20.00;75.40;;;;;;5042448;28;20522;-60
2021/01/04 00:11:50;;;;;;;0.55;0.30;;;19.90;75.40;;;;;;5065314;28;20041;-68
2021/01/04 00:14:37;;;;;;;0.30;0.30;;;19.90;75.40;;;;;;5069836;28;20044;-68
2021/01/04 00:17:28;;;;;;;0.32;0.32;;;19.90;75.40;;;;;;5069580;28;20052;-60
2021/01/04 00:20:28;;;;;;;0.63;0.30;;;19.90;75.40;;;;;;5064384;28;20055;-61
2021/01/04 00:23:12;;;;;;;2.85;2.65;;;19.90;75.50;;;;;;5061313;28;20281;-60
2021/01/04 00:25:53;;;;;;;0.47;0.38;;;19.90;75.40;;;;;;5065023;28;20055;-68
2021/01/04 00:28:26;;;;;;;2.15;1.25;;;20.00;75.60;;;;;;5062933;28;20144;-60
2021/01/04 00:31:10;;;;;;;0.82;0.40;;;20.00;75.60;;;;;;5061293;28;20073;-68
2021/01/04 00:33:49;;;;;;;2.20;0.60;;;20.00;76.10;;;;;;5064656;28;20047;-68
2021/01/04 00:36:20;;;;;;;0.90;0.30;;;19.90;75.50;;;;;;5065117;28;20480;-68
2021/01/04 00:39:08;;;;;;;0.40;0.40;;;20.00;75.70;;;;;;5060049;28;20481;-60
2021/01/04 00:42:26;;;;;;;0.10;0.10;;;20.00;75.70;;;;;;5077902;28;20115;-60
2021/01/04 00:44:57;;;;;;;0.50;0.40;;;20.00;75.70;;;;;;5005389;28;20056;-60
2021/01/04 00:47:33;;;;;;;0.43;0.40;;;20.00;75.70;;;;;;5007313;28;20042;-61
2021/01/04 00:50:58;;;;;;;0.75;0.47;;;20.00;75.80;;;;;;5003878;28;20096;-61
2021/01/04 00:53:37;;;;;;;0.80;0.38;;;20.00;75.80;;;;;;4930121;28;20039;-62
2021/01/04 00:56:33;;;;;;;0.63;0.50;;;20.00;75.90;;;;;;5000422;28;20108;-69
2021/01/04 00:59:23;;;;;;;0.32;0.30;;;20.00;75.90;;;;;;4994155;28;20050;-62
2021/01/04 01:02:16;;;;;;;1.00;0.57;;;20.00;76.00;;;;;;4974072;28;20064;-60
2021/01/04 01:05:06;;;;;;;1.58;1.20;;;20.00;75.90;;;;;;4997337;28;20050;-61
2021/01/04 01:08:04;;;;;;;1.33;0.65;;;20.00;75.90;;;;;;5002104;28;20049;-69
2021/01/04 01:10:59;;;;;;;1.88;1.77;;;20.00;76.00;;;;;;4999290;28;20117;-61
2021/01/04 01:13:50;;;;;;;1.67;1.38;;;20.00;76.00;;;;;;4988689;28;20050;-61
2021/01/04 01:16:26;;;;;;;1.13;0.90;;;20.00;76.00;;;;;;5043796;28;20736;-69
2021/01/04 01:19:23;;;;;;;1.90;1.40;;;20.10;76.20;;;;;;5060699;28;20037;-69
2021/01/04 01:21:53;;;;;;;1.08;1.08;;;20.00;76.10;;;;;;5058250;28;20040;-61
2021/01/04 01:24:26;;;;;;;1.70;1.60;;;20.10;76.90;;;;;;5048205;28;20428;-69
2021/01/04 01:27:32;;;;;;;1.92;1.67;;;20.10;76.30;;;;;;5036170;28;20049;-68
2021/01/04 01:30:18;;;;;;;3.80;3.53;;;20.10;76.20;;;;;;5049934;28;20044;-68
2021/01/04 01:33:18;;;;;;;1.73;1.38;;;20.10;76.30;;;;;;5047957;28;20080;-61
2021/01/04 01:36:07;;;;;;;0.60;0.55;;;20.10;76.30;;;;;;5057149;28;20548;-69
2021/01/04 01:39:14;;;;;;;3.03;2.83;;;20.10;76.30;;;;;;5056137;28;20056;-68
2021/01/04 01:42:08;;;;;;;1.50;1.40;;;20.10;76.30;;;;;;5060297;28;20049;-61
2021/01/04 01:45:07;;;;;;;0.93;0.50;;;20.10;76.40;;;;;;5047135;28;20056;-69
2021/01/04 01:47:50;;;;;;;0.70;0.70;;;20.10;76.40;;;;;;5053235;28;20497;-61
2021/01/04 01:50:48;;;;;;;0.85;0.77;;;20.10;76.40;;;;;;5053483;28;20037;-68
2021/01/04 01:53:39;;;;;;;0.30;0.30;;;20.10;76.40;;;;;;5060632;28;20039;-61
2021/01/04 01:56:38;;;;;;;3.30;0.77;;;20.10;76.40;;;;;;5030956;28;20063;-61
2021/01/04 01:59:12;;;;;;;1.65;0.60;;;20.10;76.50;;;;;;5045442;28;20095;-69
2021/01/04 02:01:48;;;;;;;1.55;1.20;;;20.20;76.70;;;;;;5057951;28;20515;-61
2021/01/04 02:04:40;;;;;;;4.22;4.03;;;20.20;76.40;;;;;;5054108;28;20053;-61
2021/01/04 02:07:14;;;;;;;2.03;1.92;;;20.20;76.40;;;;;;5056420;28;20119;-68
2021/01/04 02:09:54;;;;;;;1.67;1.58;;;20.10;76.50;;;;;;5052139;28;20386;-61
2021/01/04 02:12:44;;;;;;;1.83;1.00;;;20.20;76.40;;;;;;5053854;28;20056;-68
2021/01/04 02:15:20;;;;;;;2.17;1.20;;;20.20;76.40;;;;;;5053687;28;20147;-61
2021/01/04 02:17:58;;;;;;;0.60;0.60;;;20.20;76.50;;;;;;5060547;28;20132;-60
2021/01/04 02:20:52;;;;;;;0.30;0.30;;;20.20;76.60;;;;;;5049140;28;20040;-60
2021/01/04 02:23:25;;;;;;;0.52;0.50;;;20.20;76.60;;;;;;5055861;28;20076;-61
2021/01/04 02:25:58;;;;;;;2.50;0.85;;;20.20;76.60;;;;;;5068248;28;20040;-60
2021/01/04 02:28:33;;;;;;;0.82;0.82;;;20.10;76.70;;;;;;5060500;28;20044;-60
2021/01/04 02:31:04;;;;;;;0.30;0.30;;;20.10;76.60;;;;;;5051432;28;20061;-68
2021/01/04 02:33:35;;;;;;;0.80;0.65;;;20.20;76.50;;;;;;5048480;28;20048;-60
2021/01/04 02:36:06;;;;;;;0.70;0.70;;;20.20;76.60;;;;;;5045529;28;20461;-68
2021/01/04 02:38:43;;;;;;;0.40;0.40;;;20.20;76.70;;;;;;5055136;28;20037;-60
2021/01/04 02:41:16;;;;;;;0.25;0.25;;;20.20;76.60;;;;;;5048404;28;20473;-61
2021/01/04 02:43:47;;;;;;;0.70;0.35;;;20.20;76.50;;;;;;5055431;28;20052;-60
2021/01/04 02:46:23;;;;;;;1.23;0.95;;;20.20;76.60;;;;;;5052652;28;21158;-68
2021/01/04 02:49:05;;;;;;;1.75;1.67;;;20.20;76.50;;;;;;5061566;28;20130;-61
2021/01/04 02:51:42;;;;;;;0.88;0.88;;;20.20;76.60;;;;;;5046974;28;20044;-62
2021/01/04 02:54:15;;;;;;;0.40;0.40;;;20.20;76.50;;;;;;5047278;28;20041;-69
2021/01/04 02:57:07;;;;;;;0.45;0.45;;;20.20;76.50;;;;;;5046663;28;20078;-61
2021/01/04 02:59:44;;;;;;;0.60;0.60;;;20.20;76.50;;;;;;5048266;28;20049;-61
2021/01/04 03:02:23;;;;;;;1.20;0.70;;;20.20;76.40;;;;;;5050749;28;20064;-68
2021/01/04 03:04:53;;;;;;;0.60;0.32;;;20.20;76.50;;;;;;5046082;28;20134;-68
2021/01/04 03:07:30;;;;;;;0.73;0.52;;;20.20;76.60;;;;;;5043457;28;20045;-68
2021/01/04 03:10:09;;;;;;;0.65;0.55;;;20.20;76.60;;;;;;5044623;28;20047;-68
2021/01/04 03:12:39;;;;;;;0.30;0.30;;;20.20;77.10;;;;;;5045703;28;20047;-68
2021/01/04 03:15:45;;;;;;;2.53;0.68;;;20.20;76.60;;;;;;5045435;28;20119;-61
2021/01/04 03:18:26;;;;;;;1.13;0.60;;;20.30;76.60;;;;;;4999888;28;20921;-67
2021/01/04 03:20:56;;;;;;;1.00;0.90;;;20.20;76.50;;;;;;5053166;28;20068;-68
2021/01/04 03:23:26;;;;;;;0.75;0.20;;;20.20;76.50;;;;;;5054687;28;20760;-68
2021/01/04 03:26:10;;;;;;;1.85;0.90;;;20.30;77.20;;;;;;5056754;28;20048;-62
2021/01/04 03:28:39;;;;;;;1.20;0.50;;;20.20;76.50;;;;;;5055821;28;20476;-69
2021/01/04 03:31:11;;;;;;;1.90;0.30;;;20.30;76.60;;;;;;5059546;28;20041;-68
2021/01/04 03:33:47;;;;;;;1.05;0.50;;;20.20;76.50;;;;;;5049275;28;20504;-62
2021/01/04 03:36:18;;;;;;;0.30;0.30;;;20.30;76.50;;;;;;5052311;28;20068;-61
2021/01/04 03:38:48;;;;;;;0.93;0.50;;;20.30;76.40;;;;;;5051956;28;20057;-69
2021/01/04 03:41:19;;;;;;;1.45;0.60;;;20.30;76.40;;;;;;5045019;28;20115;-68
2021/01/04 03:43:50;;;;;;;1.33;1.23;;;20.30;76.40;;;;;;5049540;28;20037;-61
2021/01/04 03:46:21;;;;;;;2.22;2.13;;;20.30;76.40;;;;;;5051346;28;20056;-61
2021/01/04 03:48:52;;;;;;;;;;;20.30;76.40;;;;;;5047475;28;20044;-68
2021/01/04 03:51:23;;;;;;;3.15;1.95;;;20.30;76.50;;;;;;5056566;28;20003;-69
2021/01/04 03:53:54;;;;;;;2.05;1.88;;;20.30;76.40;;;;;;5056432;28;20068;-61
2021/01/04 03:56:25;;;;;;;3.20;3.00;;;20.30;76.40;;;;;;5049513;28;20128;-61
2021/01/04 03:58:55;;;;;;;2.00;1.00;;;20.30;76.40;;;;;;5051691;28;20071;-61
2021/01/04 04:01:25;;;;;;;0.77;0.70;;;20.30;76.30;;;;;;5045247;28;20048;-61
2021/01/04 04:03:57;;;;;;;0.60;0.60;;;20.30;76.30;;;;;;5047649;28;20508;-71
2021/01/04 04:06:29;;;;;;;2.35;1.02;;;20.30;76.30;;;;;;5046248;28;20122;-68
2021/01/04 04:09:00;;;;;;;0.65;0.65;;;20.30;76.30;;;;;;5050614;28;20140;-69
2021/01/04 04:11:30;;;;;;;0.75;0.65;;;20.30;76.20;;;;;;5051705;28;20041;-60
2021/01/04 04:13:59;;;;;;;3.20;2.10;;;20.30;76.40;;;;;;5051021;28;20059;-68
2021/01/04 04:16:29;;;;;;;2.47;2.25;;;20.30;76.20;;;;;;5047936;28;20178;-68
2021/01/04 04:18:59;;;;;;;0.35;0.32;;;20.30;76.30;;;;;;5060014;28;20037;-62
2021/01/04 04:21:29;;;;;;;2.80;2.67;;;20.30;76.40;;;;;;5055323;28;20124;-68
2021/01/04 04:23:59;;;;;;;3.03;2.72;;;20.30;76.40;;;;;;5053855;28;20163;-62
2021/01/04 04:26:30;;;;;;;2.08;1.63;;;20.30;76.30;;;;;;5049148;28;20037;-61
2021/01/04 04:29:00;;;;;;;1.92;1.63;;;20.30;76.30;;;;;;5056014;28;20040;-68
2021/01/04 04:31:30;;;;;;;3.47;3.08;;;20.30;76.30;;;;;;5043685;28;20048;-62
2021/01/04 04:33:59;;;;;;;3.85;3.60;;;20.30;76.20;;;;;;5052098;28;20040;-61
2021/01/04 04:36:32;;;;;;;1.33;1.27;;;20.30;76.20;;;;;;5051226;28;20051;-67
2021/01/04 04:39:05;;;;;;;1.98;1.58;;;20.30;76.20;;;;;;5058347;28;20047;-62
2021/01/04 04:41:44;;;;;;;2.45;1.95;;;20.30;76.20;;;;;;5055711;28;20045;-62
2021/01/04 04:44:41;;;;;;;5.75;5.38;;;20.40;76.20;;;;;;5054419;28;20128;-68
2021/01/04 04:47:16;;;;;;;3.90;3.50;;;20.30;76.10;;;;;;5051518;28;20571;-62
2021/01/04 04:49:54;;;;;;;2.13;2.00;;;20.30;76.20;;;;;;5059436;28;20130;-69
2021/01/04 04:52:31;;;;;;;4.22;3.92;;;20.30;76.10;;;;;;5060284;28;20404;-61
2021/01/04 04:55:31;;;;;;;5.15;3.80;;;20.30;76.00;;;;;;5071772;28;20127;-62
2021/01/04 04:58:33;;;;;;;3.63;3.42;;;20.30;76.10;;;;;;5049018;28;20506;-61
2021/01/04 05:01:35;;;;;;;1.90;1.80;;;20.30;76.10;;;;;;5025015;28;20059;-60
2021/01/04 05:04:28;;;;;;;4.75;4.28;;;20.30;76.10;;;;;;5026646;28;20502;-68
2021/01/04 05:07:16;;;;;;;4.45;4.05;;;20.30;76.10;;;;;;5056534;28;20676;-62
2021/01/04 05:10:09;;;;;;;2.97;2.67;;;20.40;76.10;;;;;;5056577;28;20450;-62
2021/01/04 05:13:01;;;;;;;1.35;0.88;;;20.30;76.10;;;;;;5057141;28;20508;-68
2021/01/04 05:15:42;;;;;;;1.80;1.70;;;20.30;76.10;;;;;;5032919;28;20122;-68
2021/01/04 05:18:29;;;;;;;;;;;20.30;76.10;;;;;;5051628;28;20060;-69
2021/01/04 05:21:19;;;;;;;2.38;1.20;;;20.30;76.20;;;;;;5048072;28;20004;-62
2021/01/04 05:23:52;;;;;;;0.80;0.70;;;20.40;76.20;;;;;;5048017;28;20053;-69
2021/01/04 05:26:46;;;;;;;1.63;1.52;;;20.30;76.20;;;;;;5048106;28;20277;-62
2021/01/04 05:29:39;;;;;;;2.63;2.42;;;20.30;76.30;;;;;;5057395;28;20127;-68
2021/01/04 05:32:32;;;;;;;0.95;0.80;;;20.30;76.30;;;;;;5053622;28;20045;-62
2021/01/04 05:35:07;;;;;;;0.90;0.90;;;20.30;76.20;;;;;;5045601;28;20063;-69
2021/01/04 05:38:05;;;;;;;0.30;0.30;;;20.30;76.30;;;;;;5055275;28;20532;-61
2021/01/04 05:40:39;;;;;;;0.32;0.32;;;20.40;76.40;;;;;;5061690;28;20051;-68
2021/01/04 05:43:31;;;;;;;0.55;0.40;;;20.40;76.30;;;;;;5051314;28;20790;-62
2021/01/04 05:46:02;;;;;;;0.60;0.45;;;20.30;76.40;;;;;;5056783;28;20070;-61
2021/01/04 05:49:00;;;;;;;0.63;0.63;;;20.40;76.40;;;;;;5050360;28;20076;-61
2021/01/04 05:51:40;;;;;;;0.38;0.38;;;20.30;76.40;;;;;;5048474;28;20067;-61
2021/01/04 05:54:13;;;;;;;0.63;0.40;;;20.40;76.40;;;;;;5050109;28;20128;-61
2021/01/04 05:56:45;;;;;;;0.22;0.22;;;20.40;76.50;;;;;;5046839;28;20041;-61
2021/01/04 05:59:17;;;;;;;1.48;0.47;;;20.40;76.40;;;;;;5049113;28;20152;-61
2021/01/04 06:01:47;;;;;;;0.88;0.40;;;20.40;76.40;;;;;;5055950;28;20033;-61
2021/01/04 06:04:27;;;;;;;0.52;0.30;;;20.40;76.40;;;;;;5048091;28;20048;-69
2021/01/04 06:07:06;;;;;;;3.03;0.40;;;20.40;76.30;;;;;;5054002;28;20044;-61
2021/01/04 06:09:36;;;;;;;3.88;3.63;;;20.40;76.40;;;;;;5051591;28;20052;-68
2021/01/04 06:12:40;;;;;;;1.98;1.88;;;20.40;76.30;;;;;;5056440;28;20131;-61
2021/01/04 06:15:12;;;;;;;3.53;3.35;;;20.40;76.30;;;;;;5048148;28;20049;-68
2021/01/04 06:17:44;;;;;;;4.85;4.38;;;20.40;76.20;;;;;;5048306;28;20122;-62
2021/01/04 06:20:19;;;;;;;4.80;4.40;;;20.40;76.20;;;;;;5049674;28;20040;-61
2021/01/04 06:22:50;;;;;;;4.88;4.38;;;20.40;76.10;;;;;;5053944;28;20049;-61
2021/01/04 06:25:19;;;;;;;5.50;5.03;;;20.40;76.10;;;;;;5061956;28;20063;-61
2021/01/04 06:27:49;;;;;;;4.40;4.07;;;20.40;76.10;;;;;;5052334;28;20045;-61
2021/01/04 06:30:31;;;;;;;5.15;4.75;;;20.40;76.20;;;;;;5048264;28;20053;-61
2021/01/04 06:33:24;;;;;;;7.32;6.68;;;20.40;76.10;;;;;;5057918;28;20496;-61
2021/01/04 06:36:08;;;;;;;7.80;7.10;;;20.40;76.10;;;;;;5060772;28;20036;-61
2021/01/04 06:38:40;;;;;;;6.55;6.00;;;20.40;76.00;;;;;;5054668;28;20045;-68
2021/01/04 06:41:18;;;;;;;5.63;5.30;;;20.40;76.20;;;;;;5056479;28;20044;-61
2021/01/04 06:43:50;;;;;;;4.53;4.22;;;20.40;76.00;;;;;;5054636;28;20520;-61
2021/01/04 06:46:48;;;;;;;4.45;4.07;;;20.40;76.00;;;;;;5046478;28;20069;-61
2021/01/04 06:49:27;;;;;;;8.00;7.30;;;20.40;76.00;;;;;;5053406;28;20575;-62
2021/01/04 06:52:24;;;;;;;4.20;3.90;;;20.40;75.90;;;;;;5048057;28;20043;-63
2021/01/04 06:55:06;;;;;;;4.40;3.80;;;20.40;76.00;;;;;;5059076;28;20419;-62
2021/01/04 06:57:57;;;;;;;7.57;6.85;;;20.40;75.90;;;;;;5050818;28;20045;-61
2021/01/04 07:00:33;;;;;;;4.25;3.08;;;20.40;75.90;;;;;;5054879;28;20132;-61
2021/01/04 07:03:24;;;;;;;5.22;4.72;;;20.30;75.90;;;;;;5051561;28;20052;-62
2021/01/04 07:06:22;;;;;;;3.33;3.13;;;20.30;75.90;;;;;;5069910;28;20045;-69
2021/01/04 07:08:52;;;;;;;5.93;4.70;;;20.30;75.90;;;;;;5044118;28;20138;-60
2021/01/04 07:11:44;;;;;;;3.65;2.92;;;20.40;75.90;;;;;;5046872;28;20495;-68
2021/01/04 07:14:38;;;;;;;7.15;6.55;;;20.40;75.90;;;;;;5055730;28;20515;-68
2021/01/04 07:17:40;;;;;;;3.25;2.95;;;20.30;75.90;;;;;;5068154;28;20072;-61
2021/01/04 07:20:45;;;;;;;9.85;9.07;;;20.30;75.80;;;;;;5054037;28;20189;-61
2021/01/04 07:23:42;;;;;;;10.02;9.20;;;20.30;75.90;;;;;;5029476;28;20375;-68
2021/01/04 07:26:18;;;;;;;6.68;6.10;;;20.30;75.80;;;;;;5052294;28;20049;-60
2021/01/04 07:29:09;;;;;;;8.40;7.60;;;20.30;75.90;;;;;;5050893;28;20099;-68
2021/01/04 07:32:11;;;;;;;7.67;6.93;;;20.30;75.90;;;;;;5057616;28;20123;-61
2021/01/04 07:34:58;;;;;;;5.47;5.00;;;20.30;75.90;;;;;;5056360;28;20049;-61
2021/01/04 07:38:01;;;;;;;6.97;6.28;;;20.30;75.90;;;;;;5054092;28;21578;-68
2021/01/04 07:40:37;;;;;;;2.75;2.55;;;20.30;75.80;;;;;;5052006;28;20055;-61
2021/01/04 07:43:29;;;;;;;6.65;6.03;;;20.30;75.80;;;;;;5057189;28;20504;-61
2021/01/04 07:46:31;;;;;;;4.25;3.85;;;20.30;75.80;;;;;;5057757;28;20109;-60
2021/01/04 07:49:37;;;;;;;3.28;2.55;;;20.30;75.80;;;;;;5052037;28;20098;-67
2021/01/04 07:52:40;;;;;;;6.15;3.65;;;20.20;75.80;;;;;;5044959;28;20535;-67
2021/01/04 07:55:41;;;;;;;2.90;2.50;;;20.20;75.70;;;;;;5048219;28;20033;-69
2021/01/04 07:59:02;;;;;;;5.53;3.05;;;20.20;76.40;;;;;;5044077;28;20057;-64
2021/01/04 08:01:46;;;;;;;5.22;3.28;;;20.20;75.80;;;;;;4989365;28;20743;-62
2021/01/04 08:04:34;;;;;;;4.50;4.10;;;20.20;75.70;;;;;;4986828;28;20046;-61
2021/01/04 08:07:40;;;;;;;2.40;2.13;;;20.20;75.70;;;;;;5040960;28;20065;-68
2021/01/04 08:10:28;;;;;;;3.58;2.08;;;20.20;75.80;;;;;;5051450;28;20059;-61
2021/01/04 08:13:49;;;;;;;3.90;3.53;;;20.20;75.80;;;;;;5057061;28;20075;-69
2021/01/04 08:16:42;;;;;;;2.50;1.92;;;20.20;75.80;;;;;;5055275;28;20049;-61
2021/01/04 08:19:14;;;;;;;2.55;1.30;;;20.20;75.80;;;;;;5053393;28;20076;-68
2021/01/04 08:22:17;;;;;;;2.05;0.95;;;20.20;75.80;;;;;;5060930;28;20056;-61
2021/01/04 08:24:51;;;;;;;2.28;1.95;;;20.20;75.80;;;;;;5049919;28;20041;-68
2021/01/04 08:27:41;;;;;;;6.30;3.40;;;20.20;75.80;;;;;;5049016;28;20136;-68
2021/01/04 08:30:40;;;;;;;5.22;3.45;;;20.10;75.70;;;;;;5059783;28;20064;-68
2021/01/04 08:33:44;;;;;;;2.25;1.33;;;20.20;75.80;;;;;;5052071;28;20507;-61
2021/01/04 08:36:37;;;;;;;3.00;2.67;;;20.20;75.80;;;;;;5027148;28;20052;-62
2021/01/04 08:39:20;;;;;;;5.68;2.83;;;20.10;75.70;;;;;;5043613;28;20062;-61
2021/01/04 08:42:04;;;;;;;1.40;1.30;;;20.10;75.80;;;;;;5047982;28;20107;-61
2021/01/04 08:44:36;;;;;;;3.80;3.45;;;20.10;75.70;;;;;;5047636;28;20481;-68
2021/01/04 08:47:11;;;;;;;1.90;1.35;;;20.10;75.70;;;;;;5058513;28;20037;-61
2021/01/04 08:49:45;;;;;;;1.13;1.05;;;20.10;75.70;;;;;;5050044;28;20523;-62
2021/01/04 08:52:19;;;;;;;1.10;0.93;;;20.10;75.70;;;;;;5061949;28;20560;-68
2021/01/04 08:55:01;;;;;;;1.45;1.30;;;20.10;75.70;;;;;;5061255;28;20029;-62
2021/01/04 08:57:44;;;;;;;2.38;2.13;;;20.10;75.80;;;;;;5057877;28;20132;-68
2021/01/04 09:00:25;;;;;;;1.38;1.27;;;20.10;75.70;;;;;;5050627;28;20336;-61
2021/01/04 09:02:55;;;;;;;1.47;1.37;;;20.10;75.60;;;;;;5047989;28;20049;-69
2021/01/04 09:05:39;;;;;;;3.70;3.35;;;20.10;75.70;;;;;;5060591;28;20049;-62
2021/01/04 09:08:11;;;;;;;1.70;1.25;;;20.10;75.10;;;;;;5050516;28;20056;-62
2021/01/04 09:10:46;;;;;;;0.75;0.60;;;20.00;75.70;;;;;;5054076;28;20091;-69
2021/01/04 09:13:29;;;;;;;2.85;2.60;;;20.10;75.70;;;;;;5054749;28;20037;-70
2021/01/04 09:16:11;;;;;;;1.92;1.67;;;20.00;75.60;;;;;;5058116;28;20376;-61
2021/01/04 09:18:44;;;;;;;3.00;2.60;;;20.00;75.60;;;;;;5052224;28;20510;-69
2021/01/04 09:21:36;;;;;;;4.22;3.83;;;20.00;75.60;;;;;;5055029;28;20049;-68
2021/01/04 09:24:16;;;;;;;2.90;1.38;;;20.00;75.60;;;;;;5059074;28;20076;-61
2021/01/04 09:26:49;;;;;;;2.13;2.03;;;20.00;75.60;;;;;;5055155;28;20044;-68
2021/01/04 09:29:27;;;;;;;3.17;2.50;;;20.00;75.60;;;;;;5050583;28;20524;-61
2021/01/04 09:32:07;;;;;;;2.08;1.38;;;20.00;75.60;;;;;;5055971;28;20040;-61
2021/01/04 09:34:39;;;;;;;4.50;3.42;;;20.00;75.60;;;;;;5050753;28;20048;-61
2021/01/04 09:37:21;;;;;;;3.53;3.25;;;20.00;75.60;;;;;;5051378;28;20044;-61
2021/01/04 09:40:00;;;;;;;2.13;1.47;;;20.00;75.70;;;;;;5051626;28;20132;-61
2021/01/04 09:42:32;;;;;;;1.57;1.47;;;20.00;75.60;;;;;;5058902;28;20380;-68
2021/01/04 09:45:19;;;;;;;0.52;0.52;;;20.00;75.70;;;;;;5051820;28;20397;-68
2021/01/04 09:47:56;;;;;;;1.50;1.15;;;20.00;75.60;;;;;;5060095;28;20123;-68
2021/01/04 09:50:55;;;;;;;0.63;0.63;;;19.90;75.70;;;;;;5050866;28;20064;-70
2021/01/04 09:53:35;;;;;;;0.90;0.60;;;20.00;75.60;;;;;;5047889;28;20063;-69
2021/01/04 09:56:15;;;;;;;0.80;0.77;;;19.90;75.60;;;;;;5054583;28;20045;-69
2021/01/04 09:58:47;;;;;;;1.17;1.08;;;19.90;75.70;;;;;;5050795;28;20047;-67
2021/01/04 10:01:19;;;;;;;1.08;0.60;;;19.90;75.60;;;;;;5049677;28;20045;-60
2021/01/04 10:03:57;;;;;;;0.70;0.70;;;19.90;75.60;;;;;;5058241;28;20041;-70
2021/01/04 10:06:33;;;;;;;0.70;0.52;;;19.90;75.60;;;;;;5047097;28;22069;-68
2021/01/04 10:09:08;;;;;;;1.05;1.02;;;19.90;75.80;;;;;;5049363;28;20036;-69
2021/01/04 10:11:37;;;;;;;0.60;0.60;;;19.90;75.60;;;;;;5061676;28;20440;-61
2021/01/04 10:14:12;;;;;;;0.77;0.40;;;19.90;75.60;;;;;;5058722;28;20048;-61
2021/01/04 10:16:48;;;;;;;1.20;1.08;;;19.90;75.60;;;;;;5053226;28;20044;-61
2021/01/04 10:19:28;;;;;;;0.80;0.50;;;19.90;75.60;;;;;;5056196;28;20067;-69
2021/01/04 10:22:10;;;;;;;1.13;0.77;;;19.80;75.60;;;;;;5059788;28;20049;-64
2021/01/04 10:24:57;;;;;;;2.58;1.20;;;19.80;75.60;;;;;;5052379;28;20048;-69
2021/01/04 10:27:30;;;;;;;0.80;0.80;;;19.80;75.60;;;;;;5057166;28;20048;-69
2021/01/04 10:30:25;;;;;;;1.23;1.23;;;19.80;75.70;;;;;;5050193;28;20041;-69
2021/01/04 10:33:11;;;;;;;0.70;0.40;;;19.80;75.60;;;;;;5048665;28;20072;-62
2021/01/04 10:35:41;;;;;;;0.57;0.52;;;19.80;75.70;;;;;;5064739;28;20279;-62
2021/01/04 10:38:23;;;;;;;0.98;0.98;;;19.80;75.60;;;;;;5059414;28;20052;-70
2021/01/04 10:40:53;;;;;;;0.95;0.95;;;19.80;75.70;;;;;;5059071;28;20127;-62
2021/01/04 10:43:27;;;;;;;0.50;0.43;;;19.80;75.70;;;;;;5060994;28;20043;-69
2021/01/04 10:46:22;;;;;;;1.10;1.00;;;19.70;75.60;;;;;;5055224;28;20560;-69
2021/01/04 10:49:26;;;;;;;2.05;1.73;;;19.80;75.70;;;;;;5057043;28;20047;-69
2021/01/04 10:51:59;;;;;;;2.88;2.67;;;19.70;75.70;;;;;;5049655;28;20140;-67
2021/01/04 10:54:42;;;;;;;0.95;0.95;;;19.70;75.60;;;;;;5059091;28;20467;-61
2021/01/04 10:57:12;;;;;;;0.93;0.55;;;19.70;75.70;;;;;;5052558;28;20071;-69
2021/01/04 11:00:03;;;;;;;0.68;0.20;;;19.70;75.70;;;;;;5051915;28;20045;-61
2021/01/04 11:02:48;;;;;;;1.73;0.68;;;19.70;75.60;;;;;;5057508;28;20048;-69
2021/01/04 11:05:35;;;;;;;0.85;0.60;;;19.70;75.70;;;;;;5044340;28;20029;-68
2021/01/04 11:08:31;;;;;;;0.40;0.20;;;19.70;75.70;;;;;;5045503;28;20048;-69
2021/01/04 11:11:07;;;;;;;0.30;0.30;;;19.70;75.70;;;;;;5049324;28;20108;-60
2021/01/04 11:13:37;;;;;;;0.95;0.38;;;19.70;75.60;;;;;;5058947;28;20044;-69
2021/01/04 11:16:19;;;;;;;0.30;0.30;;;19.70;75.70;;;;;;5054548;28;20041;-61
2021/01/04 11:18:57;;;;;;;0.38;0.30;;;19.70;75.70;;;;;;5049586;28;20044;-61
2021/01/04 11:21:45;;;;;;;0.25;0.25;;;19.70;75.70;;;;;;5049972;28;20051;-61
2021/01/04 11:24:14;;;;;;;0.35;0.35;;;19.70;75.70;;;;;;5053759;28;20029;-69
2021/01/04 11:26:47;;;;;;;0.68;0.20;;;19.70;75.70;;;;;;5055730;28;20051;-68
2021/01/04 11:29:17;;;;;;;0.20;0.20;;;19.70;75.80;;;;;;5050300;28;20122;-61
2021/01/04 11:31:47;;;;;;;0.55;0.20;;;19.70;75.80;;;;;;5056681;28;20047;-69
2021/01/04 11:34:17;;;;;;;0.17;0.17;;;19.70;75.80;;;;;;5060326;28;20052;-69
2021/01/04 11:36:51;;;;;;;0.20;0.20;;;19.70;76.00;;;;;;5048643;28;20051;-61
2021/01/04 11:39:24;;;;;;;0.10;0.10;;;19.60;75.80;;;;;;5050080;28;20112;-61
2021/01/04 11:41:56;;;;;;;0.30;0.25;;;19.60;75.70;;;;;;5048654;28;20098;-69
2021/01/04 11:44:29;;;;;;;0.10;0.10;;;19.60;75.80;;;;;;5050148;28;20072;-69
2021/01/04 11:47:01;;;;;;;0.47;0.30;;;19.60;75.80;;;;;;5042024;28;20080;-61
2021/01/04 11:49:34;;;;;;;0.98;0.90;;;19.60;75.70;;;;;;5048244;28;20044;-62
2021/01/04 11:52:06;;;;;;;0.90;0.90;;;19.60;75.80;;;;;;5055274;28;20037;-69
2021/01/04 11:54:43;;;;;;;0.47;0.47;;;19.60;75.80;;;;;;5054341;28;20094;-69
2021/01/04 11:57:14;;;;;;;1.33;0.43;;;19.60;75.80;;;;;;5054970;28;20069;-69
2021/01/04 11:59:44;;;;;;;0.10;0.10;;;19.60;75.90;;;;;;5053186;28;20125;-69
2021/01/04 12:02:14;;;;;;;0.22;0.22;;;19.60;75.90;;;;;;5048256;28;20045;-62
2021/01/04 12:04:44;;;;;;;0.25;0.25;;;19.60;76.50;;;;;;5048082;28;20052;-69
2021/01/04 12:07:15;;;;;;;0.20;0.20;;;19.60;75.90;;;;;;5052940;28;20041;-69
2021/01/04 12:09:46;;;;;;;0.40;0.20;;;19.60;75.90;;;;;;5052893;28;20123;-62
2021/01/04 12:12:16;;;;;;;1.95;0.30;;;19.50;75.90;;;;;;5053962;28;20047;-62
2021/01/04 12:14:46;;;;;;;0.30;0.30;;;19.50;75.90;;;;;;5046870;28;20043;-69
2021/01/04 12:17:16;;;;;;;0.30;0.20;;;19.60;76.60;;;;;;5058417;28;20044;-69
2021/01/04 12:19:45;;;;;;;1.13;0.43;;;19.50;75.90;;;;;;5045818;28;20108;-69
2021/01/04 12:22:16;;;;;;;0.80;0.32;;;19.50;76.00;;;;;;5046278;28;20493;-62
2021/01/04 12:24:47;;;;;;;0.40;0.30;;;19.50;75.90;;;;;;5047395;28;20465;-69
2021/01/04 12:27:18;;;;;;;0.20;0.20;;;19.50;75.90;;;;;;5055227;28;20123;-61
2021/01/04 12:29:49;;;;;;;0.88;0.25;;;19.50;76.10;;;;;;5051827;28;20040;-62
2021/01/04 12:32:20;;;;;;;0.38;0.38;;;19.50;75.90;;;;;;5052648;28;20116;-62
2021/01/04 12:34:51;;;;;;;0.52;0.45;;;19.50;76.00;;;;;;5050089;28;20044;-68
2021/01/04 12:37:23;;;;;;;0.57;0.38;;;19.50;76.00;;;;;;5047116;28;20041;-69
2021/01/04 12:39:56;;;;;;;0.35;0.35;;;19.50;76.00;;;;;;5046429;28;20044;-69
2021/01/04 12:42:27;;;;;;;0.25;0.25;;;19.50;76.00;;;;;;5057035;28;20556;-69
2021/01/04 12:44:59;;;;;;;0.13;0.13;;;19.50;76.10;;;;;;5054275;28;20158;-69
2021/01/04 12:47:30;;;;;;;0.10;0.10;;;19.50;76.10;;;;;;5045719;28;20049;-61
2021/01/04 12:50:01;;;;;;;0.20;0.20;;;19.50;76.10;;;;;;5047014;28;20045;-69
2021/01/04 12:52:34;;;;;;;0.20;0.20;;;19.50;76.20;;;;;;5055682;28;20059;-69
2021/01/04 12:55:07;;;;;;;0.32;0.20;;;19.50;76.10;;;;;;5046887;28;20496;-61
2021/01/04 12:57:37;;;;;;;0.40;0.30;;;19.40;76.00;;;;;;5053094;28;20052;-69
2021/01/04 13:00:08;;;;;;;0.50;0.10;;;19.50;76.10;;;;;;5055010;28;20059;-62
2021/01/04 13:02:38;;;;;;;0.20;0.20;;;19.40;76.10;;;;;;5051051;28;20115;-61
2021/01/04 13:05:08;;;;;;;0.35;0.25;;;19.40;76.10;;;;;;5058035;28;20056;-69
2021/01/04 13:07:38;;;;;;;0.30;0.20;;;19.40;76.10;;;;;;5054656;28;20041;-69
2021/01/04 13:10:10;;;;;;;0.43;0.13;;;19.40;76.00;;;;;;5049533;28;20185;-69
2021/01/04 13:12:42;;;;;;;0.20;0.20;;;19.40;76.10;;;;;;5046999;28;20354;-70
2021/01/04 13:15:12;;;;;;;0.20;0.10;;;19.40;76.10;;;;;;5059378;28;20148;-69
2021/01/04 13:17:44;;;;;;;0.08;0.08;;;19.40;76.10;;;;;;5051947;28;20041;-68
2021/01/04 13:20:14;;;;;;;0.20;0.20;;;19.40;76.20;;;;;;5061865;28;20045;-69
2021/01/04 13:22:44;;;;;;;0.17;0.10;;;19.40;76.10;;;;;;5049246;28;20072;-69
2021/01/04 13:25:13;;;;;;;0.30;0.30;;;19.50;76.30;;;;;;5047485;28;20037;-69
2021/01/04 13:27:43;;;;;;;0.20;0.20;;;19.40;76.20;;;;;;5054955;28;20505;-69
2021/01/04 13:30:14;;;;;;;0.45;0.20;;;19.40;76.10;;;;;;5066923;28;20040;-68
2021/01/04 13:32:43;;;;;;;1.42;0.20;;;19.40;76.10;;;;;;5058760;28;20063;-69
2021/01/04 13:35:15;;;;;;;0.15;0.15;;;19.40;76.10;;;;;;5065113;28;20040;-68
2021/01/04 13:37:46;;;;;;;0.30;0.30;;;19.40;76.20;;;;;;5054011;28;20037;-68
2021/01/04 13:40:17;;;;;;;0.10;0.10;;;19.40;76.20;;;;;;5062786;28;20480;-68
2021/01/04 13:43:02;;;;;;;0.20;0.20;;;19.40;76.20;;;;;;5053114;28;20562;-68
2021/01/04 13:45:32;;;;;;;;;;;19.40;76.20;;;;;;5046996;28;20037;-68
2021/01/04 13:48:03;;;;;;;1.17;0.30;;;19.40;76.20;;;;;;5053612;28;19924;-61
2021/01/04 13:50:34;;;;;;;;;;;19.40;76.20;;;;;;5065707;28;20144;-70
2021/01/04 13:53:05;;;;;;;0.20;0.20;;;19.40;76.20;;;;;;5065117;28;20040;-71
2021/01/04 13:55:37;;;;;;;0.20;0.10;;;19.40;76.20;;;;;;5058364;28;20090;-69